TimeAKDT,TemperatureF,Dew PointF,Humidity,Sea Level PressureIn,VisibilityMPH,Wind Direction,Wind SpeedMPH,Gust SpeedMPH,PrecipitationIn,Events,Conditions,WindDirDegrees,DateUTC
12:58 AM,39.9,-20.9,7,29.75,10.0,North,10.4,-,N/A,,Clear,360,2013-09-09 08:58:00
1:58 AM,39.9,-20.9,7,29.75,10.0,North,9.2,-,N/A,,Clear,10,2013-09-09 09:58:00
2:58 AM,37.9,-24.0,6,29.75,10.0,North,11.5,-,N/A,,Clear,360,2013-09-09 10:58:00
3:58 AM,37.9,-24.0,6,29.75,10.0,North,11.5,-,N/A,,Clear,360,2013-09-09 11:58:00
4:58 AM,36.0,-26.0,6,29.75,10.0,North,12.7,-,N/A,,Clear,360,2013-09-09 12:58:00
5:58 AM,36.0,-26.0,6,29.74,10.0,North,10.4,-,N/A,,Clear,360,2013-09-09 13:58:00
6:58 AM,36.0,-27.0,6,29.74,10.0,North,11.5,-,N/A,,Clear,360,2013-09-09 14:58:00
7:58 AM,35.1,-27.9,6,29.73,10.0,North,12.7,-,N/A,,Mostly Cloudy,360,2013-09-09 15:58:00
8:58 AM,36.0,-27.0,6,29.73,10.0,North,12.7,-,N/A,,Overcast,360,2013-09-09 16:58:00
9:58 AM,37.0,-25.1,6,29.73,10.0,Calm,Calm,-,N/A,,Overcast,0,2013-09-09 17:58:00
10:58 AM,41.0,-20.9,7,29.72,10.0,North,8.1,-,N/A,,Overcast,360,2013-09-09 18:58:00
11:58 AM,43.0,-17.0,7,29.72,10.0,North,6.9,-,N/A,,Overcast,360,2013-09-09 19:58:00
12:58 PM,46.9,-11.9,8,29.71,10.0,North,8.1,-,N/A,,Overcast,350,2013-09-09 20:58:00
1:58 PM,51.1,-7.1,9,29.70,10.0,NNW,9.2,-,N/A,,Overcast,340,2013-09-09 21:58:00
2:58 PM,54.0,-5.1,9,29.69,10.0,NNW,5.8,-,N/A,,Overcast,340,2013-09-09 22:58:00
3:58 PM,57.9,1.0,10,29.67,10.0,North,8.1,-,N/A,,Overcast,360,2013-09-09 23:58:00
4:58 PM,57.9,1.9,10,29.66,10.0,NNW,9.2,-,N/A,,Mostly Cloudy,330,2013-09-10 00:58:00
5:58 PM,57.0,-0.9,9,29.65,10.0,NNW,6.9,-,N/A,,Overcast,330,2013-09-10 01:58:00
6:58 PM,54.0,-4.0,9,29.65,10.0,NNW,6.9,-,N/A,,Overcast,340,2013-09-10 02:58:00
7:58 PM,51.1,-8.0,9,29.64,10.0,NNW,6.9,-,0.00,Rain,Light Rain,330,2013-09-10 03:58:00
8:58 PM,51.1,-9.0,8,29.64,10.0,NNW,9.2,-,0.00,,Overcast,340,2013-09-10 04:58:00
9:58 PM,50.0,-9.0,8,29.64,10.0,North,6.9,-,0.00,Rain,Light Rain,360,2013-09-10 05:58:00
10:58 PM,48.9,-11.0,8,29.63,10.0,North,9.2,-,0.00,Rain,Light Rain,350,2013-09-10 06:58:00
11:58 PM,48.9,-11.0,8,29.63,10.0,North,9.2,-,0.00,,Mostly Cloudy,350,2013-09-10 07:58:00